createdAt,value
2019-01-27T00:00:45.705Z,100096.19
2019-01-27T00:05:52.995Z,100105.01
2019-01-27T00:10:58.746Z,100097.70
2019-01-27T00:16:06.605Z,100090.36
2019-01-27T00:21:12.502Z,100075.84
2019-01-27T00:26:18.209Z,100081.34
2019-01-27T00:31:24.427Z,100070.42
2019-01-27T00:36:30.511Z,100067.96
2019-01-27T00:41:36.443Z,100059.22
2019-01-27T00:46:42.518Z,100049.08
2019-01-27T00:51:48.507Z,100050.05
2019-01-27T00:56:55.316Z,100046.96
2019-01-27T01:02:01.307Z,100036.53
2019-01-27T01:07:07.606Z,100042.72
2019-01-27T01:12:13.630Z,100031.87
2019-01-27T01:17:19.334Z,100035.92
2019-01-27T01:22:25.359Z,100020.66
2019-01-27T01:27:31.256Z,100015.95
2019-01-27T01:32:36.954Z,100024.61
2019-01-27T01:37:43.029Z,100013.05
2019-01-27T01:42:49.228Z,100010.13
2019-01-27T01:47:55.273Z,100013.33
2019-01-27T01:53:00.952Z,99999.56
2019-01-27T01:58:06.778Z,100013.05
2019-01-27T02:03:12.586Z,99999.59
2019-01-27T02:08:18.280Z,99986.81
2019-01-27T02:13:26.042Z,99986.31
2019-01-27T02:18:32.039Z,99981.50
2019-01-27T02:23:38.082Z,99972.91
2019-01-27T02:28:43.885Z,99971.79
2019-01-27T02:33:49.598Z,99959.18
2019-01-27T02:38:55.615Z,99959.56
2019-01-27T02:44:01.653Z,99939.44
2019-01-27T02:49:07.684Z,99939.35
2019-01-27T02:54:13.570Z,99939.14
2019-01-27T02:59:19.329Z,99938.27
2019-01-27T03:04:25.164Z,99921.25
2019-01-27T03:09:31.422Z,99918.29
2019-01-27T03:14:37.212Z,99893.27
2019-01-27T03:19:42.906Z,99904.19
2019-01-27T03:24:48.668Z,99900.05
2019-01-27T03:29:54.357Z,99884.22
2019-01-27T03:35:00.408Z,99874.42
2019-01-27T03:40:14.570Z,99882.46
2019-01-27T03:45:22.351Z,99870.23
2019-01-27T03:50:28.467Z,99873.22
2019-01-27T03:55:34.479Z,99874.30
2019-01-27T04:00:40.391Z,99871.70
2019-01-27T04:05:46.165Z,99876.82
2019-01-27T04:10:51.986Z,99854.83
2019-01-27T04:15:58.015Z,99839.88
2019-01-27T04:21:03.943Z,99822.62
2019-01-27T04:26:09.897Z,99805.45
2019-01-27T04:31:15.950Z,99814.95
2019-01-27T04:36:21.851Z,99806.39
2019-01-27T04:41:27.955Z,99807.00
2019-01-27T04:46:33.721Z,99802.56
2019-01-27T04:51:39.590Z,99801.88
2019-01-27T04:56:45.322Z,99807.48
2019-01-27T05:01:50.998Z,99793.61
2019-01-27T05:06:56.949Z,99778.46
2019-01-27T05:12:02.707Z,99773.25
2019-01-27T05:17:08.439Z,99763.70
2019-01-27T05:22:14.121Z,99767.20
2019-01-27T05:27:19.965Z,99755.13
2019-01-27T05:32:25.821Z,99750.25
2019-01-27T05:37:31.546Z,99744.67
2019-01-27T05:42:37.400Z,99732.58
2019-01-27T05:47:43.123Z,99729.27
2019-01-27T05:52:49.156Z,99734.43
2019-01-27T05:57:55.373Z,99720.56
2019-01-27T06:03:01.608Z,99715.70
2019-01-27T06:08:07.525Z,99714.73
2019-01-27T06:13:13.250Z,99706.03
2019-01-27T06:18:19.234Z,99701.06
2019-01-27T06:23:25.092Z,99684.47
2019-01-27T06:28:31.090Z,99686.19
2019-01-27T06:33:38.588Z,99681.94
2019-01-27T06:38:44.307Z,99671.88
2019-01-27T06:43:50.203Z,99672.59
2019-01-27T06:48:56.309Z,99679.93
2019-01-27T06:54:02.150Z,99667.66
2019-01-27T06:59:09.522Z,99668.25
2019-01-27T07:04:19.742Z,99668.30
2019-01-27T07:09:29.902Z,99666.84
2019-01-27T07:14:53.231Z,99656.61
2019-01-27T07:20:03.294Z,99664.22
2019-01-27T07:25:27.089Z,99656.86
2019-01-27T07:30:34.654Z,99646.71
2019-01-27T07:35:42.054Z,99649.19
2019-01-27T07:40:49.729Z,99637.69
2019-01-27T07:45:57.458Z,99619.79
2019-01-27T07:51:06.207Z,99606.11
2019-01-27T07:56:13.876Z,99600.92
2019-01-27T08:01:23.904Z,99588.30
2019-01-27T08:06:32.287Z,99603.87
2019-01-27T08:11:49.078Z,99588.47
2019-01-27T08:17:05.489Z,99582.45
2019-01-27T08:22:24.786Z,99582.07
2019-01-27T08:27:37.998Z,99578.05
2019-01-27T08:32:48.790Z,99569.73
2019-01-27T08:38:02.341Z,99561.39
2019-01-27T08:43:26.054Z,99556.33
2019-01-27T08:48:31.953Z,99557.75
2019-01-27T08:53:37.766Z,99553.91
2019-01-27T08:58:43.836Z,99546.79
2019-01-27T09:03:51.441Z,99552.63
2019-01-27T09:09:10.997Z,99541.21
2019-01-27T09:14:21.126Z,99530.72
2019-01-27T09:19:37.484Z,99526.20
2019-01-27T09:25:00.987Z,99529.08
2019-01-27T09:30:11.629Z,99515.85
2019-01-27T09:35:19.010Z,99505.11
2019-01-27T09:40:35.403Z,99491.42
2019-01-27T09:46:05.131Z,99486.09
2019-01-27T09:51:04.235Z,99477.97
2019-01-27T09:56:11.921Z,99478.84
2019-01-27T10:01:19.577Z,99474.13
2019-01-27T10:06:26.942Z,99474.52
2019-01-27T10:11:37.145Z,99466.66
2019-01-27T10:16:47.315Z,99459.86
2019-01-27T10:21:57.587Z,99448.67
2019-01-27T10:27:14.215Z,99449.44
2019-01-27T10:32:30.860Z,99444.50
2019-01-27T10:37:44.350Z,99432.63
2019-01-27T10:43:00.853Z,99419.30
2019-01-27T10:48:14.436Z,99405.60
2019-01-27T10:53:25.566Z,99394.30
2019-01-27T10:58:35.924Z,99383.42
2019-01-27T11:03:43.448Z,99370.35
2019-01-27T11:08:53.643Z,99362.58
2019-01-27T11:14:00.972Z,99358.99
2019-01-27T11:19:20.035Z,99364.69
2019-01-27T11:24:27.412Z,99360.44
2019-01-27T11:29:34.802Z,99343.42
2019-01-27T11:34:42.196Z,99344.81
2019-01-27T11:40:06.328Z,99334.02
2019-01-27T11:45:26.157Z,99323.61
2019-01-27T11:50:33.488Z,99324.46
2019-01-27T11:55:39.278Z,99309.66
2019-01-27T12:00:46.641Z,99301.83
2019-01-27T12:05:52.387Z,99292.95
2019-01-27T12:10:58.090Z,99292.81
2019-01-27T12:16:04.936Z,99296.45
2019-01-27T12:21:10.777Z,99284.92
2019-01-27T12:26:16.522Z,99277.28
2019-01-27T12:31:22.303Z,99282.66
2019-01-27T12:36:28.285Z,99276.94
2019-01-27T12:41:34.217Z,99263.59
2019-01-27T12:46:40.199Z,99258.61
2019-01-27T12:51:46.154Z,99238.61
2019-01-27T12:56:52.338Z,99237.47
2019-01-27T13:01:58.178Z,99221.25
2019-01-27T13:07:04.926Z,99214.67
2019-01-27T13:12:10.731Z,99210.11
2019-01-27T13:17:16.453Z,99214.00
2019-01-27T13:22:22.112Z,99214.77
2019-01-27T13:27:28.148Z,99208.73
2019-01-27T13:32:34.256Z,99198.62
2019-01-27T13:37:40.547Z,99203.98
2019-01-27T13:42:46.524Z,99186.73
2019-01-27T13:47:52.302Z,99186.92
2019-01-27T13:52:58.043Z,99185.67
2019-01-27T13:58:04.244Z,99174.84
2019-01-27T14:03:10.149Z,99180.02
2019-01-27T14:08:16.199Z,99177.19
2019-01-27T14:13:22.108Z,99186.28
2019-01-27T14:18:28.056Z,99170.84
2019-01-27T14:23:33.936Z,99181.92
2019-01-27T14:28:39.620Z,99183.56
2019-01-27T14:33:45.670Z,99184.77
2019-01-27T14:38:51.634Z,99183.32
2019-01-27T14:43:57.602Z,99168.64
2019-01-27T14:49:03.279Z,99150.61
2019-01-27T14:54:09.015Z,99158.58
2019-01-27T14:59:14.911Z,99146.90
2019-01-27T15:04:21.085Z,99142.55
2019-01-27T15:09:27.000Z,99134.84
2019-01-27T15:14:32.708Z,99129.48
2019-01-27T15:19:38.438Z,99136.77
2019-01-27T15:24:44.736Z,99139.43
2019-01-27T15:29:50.580Z,99135.69
2019-01-27T15:34:56.275Z,99139.77
2019-01-27T15:40:01.999Z,99137.29
2019-01-27T15:45:18.876Z,99124.09
2019-01-27T15:50:31.850Z,99125.15
2019-01-27T15:55:39.054Z,99110.32
2019-01-27T16:00:45.255Z,99127.38
2019-01-27T16:05:51.023Z,99110.08
2019-01-27T16:10:56.779Z,99117.59
2019-01-27T16:16:02.791Z,99102.55
2019-01-27T16:21:08.751Z,99100.77
2019-01-27T16:26:14.853Z,99091.16
2019-01-27T16:31:22.483Z,99084.39
2019-01-27T16:36:28.554Z,99085.16
2019-01-27T16:41:34.428Z,99072.70
2019-01-27T16:46:40.138Z,99073.81
2019-01-27T16:51:49.065Z,99068.05
2019-01-27T16:56:53.338Z,99053.18
2019-01-27T17:01:59.251Z,99050.66
2019-01-27T17:07:05.869Z,99063.35
2019-01-27T17:12:11.836Z,99061.22
2019-01-27T17:17:17.629Z,99067.76
2019-01-27T17:22:23.566Z,99073.16
2019-01-27T17:27:29.935Z,99069.01
2019-01-27T17:32:35.827Z,99056.98
2019-01-27T17:37:41.647Z,99046.19
2019-01-27T17:42:47.343Z,99055.52
2019-01-27T17:47:53.245Z,99037.97
2019-01-27T17:52:58.938Z,99026.66
2019-01-27T17:58:07.725Z,99027.09
2019-01-27T18:03:15.358Z,99013.47
2019-01-27T18:08:22.749Z,98995.75
2019-01-27T18:13:29.022Z,98983.14
2019-01-27T18:18:34.827Z,99019.91
2019-01-27T18:23:40.675Z,99016.27
2019-01-27T18:28:46.455Z,99015.61
2019-01-27T18:33:52.207Z,99018.19
2019-01-27T18:38:57.935Z,99010.78
2019-01-27T18:44:03.676Z,99018.32
2019-01-27T18:49:09.456Z,99003.25
2019-01-27T18:54:30.078Z,99006.34
2019-01-27T18:59:43.477Z,98998.44
2019-01-27T19:04:57.036Z,98994.11
2019-01-27T19:10:10.007Z,99002.16
2019-01-27T19:15:37.004Z,98987.69
2019-01-27T19:20:50.334Z,99002.48
2019-01-27T19:26:00.695Z,99009.50
2019-01-27T19:31:08.321Z,98992.81
2019-01-27T19:36:30.272Z,98988.67
2019-01-27T19:42:04.348Z,98987.50
2019-01-27T19:47:11.952Z,98981.48
2019-01-27T19:52:24.809Z,98987.58
2019-01-27T19:57:41.449Z,98974.52
2019-01-27T20:02:51.709Z,98984.35
2019-01-27T20:07:59.380Z,98974.30
2019-01-27T20:13:18.348Z,98978.52
2019-01-27T20:18:26.114Z,98978.48
2019-01-27T20:23:51.326Z,98979.03
2019-01-27T20:29:10.956Z,98968.66
2019-01-27T20:34:24.300Z,98967.11
2019-01-27T20:39:34.556Z,98974.13
2019-01-27T20:44:41.888Z,98964.73
2019-01-27T20:49:51.828Z,98960.88
2019-01-27T20:54:59.524Z,98954.63
2019-01-27T21:00:18.867Z,98966.02
2019-01-27T21:05:32.287Z,98957.20
2019-01-27T21:10:45.713Z,98970.34
2019-01-27T21:15:53.285Z,98960.91
2019-01-27T21:20:59.202Z,98967.33
2019-01-27T21:26:06.042Z,98974.13
2019-01-27T21:31:12.167Z,98961.69
2019-01-27T21:36:18.096Z,98960.44
2019-01-27T21:41:24.141Z,98962.97
2019-01-27T21:46:30.035Z,98963.92
2019-01-27T21:51:36.047Z,98958.42
2019-01-27T21:56:42.279Z,98954.75
2019-01-27T22:01:48.499Z,98961.79
2019-01-27T22:06:54.440Z,98961.53
2019-01-27T22:12:00.283Z,98955.77
2019-01-27T22:17:06.436Z,98971.45
2019-01-27T22:22:12.683Z,98954.34
2019-01-27T22:27:18.572Z,98956.03
2019-01-27T22:32:24.305Z,98958.30
2019-01-27T22:37:30.056Z,98953.53
2019-01-27T22:42:35.894Z,98952.55
2019-01-27T22:47:41.584Z,98960.98
2019-01-27T22:52:47.341Z,98953.35
2019-01-27T22:57:53.204Z,98958.56
2019-01-27T23:02:58.925Z,98959.08
2019-01-27T23:08:06.473Z,98950.89
2019-01-27T23:13:12.325Z,98949.54
2019-01-27T23:18:18.325Z,98944.58
2019-01-27T23:23:24.227Z,98950.23
2019-01-27T23:28:30.143Z,98950.53
2019-01-27T23:33:35.808Z,98964.73
2019-01-27T23:38:41.684Z,98950.86
2019-01-27T23:43:47.436Z,98964.80
2019-01-27T23:48:53.482Z,98968.58
2019-01-27T23:53:59.220Z,98959.95
2019-01-27T23:59:05.811Z,98956.14
